createdAt,value
2023-01-17T04:46:02.340Z,9.77
2023-01-17T04:49:05.454Z,9.93
2023-01-17T04:52:08.135Z,9.48
2023-01-17T04:55:11.105Z,10.10
2023-01-17T04:58:13.658Z,9.43
2023-01-17T05:01:16.542Z,9.70
2023-01-17T05:04:19.119Z,9.45
2023-01-17T05:07:21.976Z,9.73
2023-01-17T05:10:25.354Z,8.45
2023-01-17T05:13:28.234Z,8.40
2023-01-17T05:16:30.797Z,7.85
2023-01-17T05:19:33.651Z,7.65
2023-01-17T05:22:36.239Z,6.20
2023-01-17T05:25:44.487Z,6.80
2023-01-17T05:28:47.185Z,6.53
2023-01-17T05:31:50.151Z,5.80
2023-01-17T05:34:52.743Z,6.37
2023-01-17T05:37:56.299Z,6.15
2023-01-17T05:41:00.580Z,5.75
2023-01-17T05:44:03.546Z,6.40
2023-01-17T05:47:06.157Z,7.32
2023-01-17T05:50:10.618Z,6.07
2023-01-17T05:53:14.904Z,7.12
2023-01-17T05:56:17.766Z,6.20
2023-01-17T05:59:32.292Z,6.68
2023-01-17T06:02:39.246Z,5.70
2023-01-17T06:05:42.283Z,6.50
2023-01-17T06:08:44.875Z,5.82
2023-01-17T06:11:47.723Z,5.45
2023-01-17T06:14:50.279Z,5.53
2023-01-17T06:17:53.125Z,5.40
2023-01-17T06:20:55.987Z,4.87
2023-01-17T06:23:58.886Z,4.87
2023-01-17T06:27:01.635Z,4.00
2023-01-17T06:30:05.318Z,4.05
2023-01-17T06:33:08.176Z,3.85
2023-01-17T06:36:11.198Z,3.70
2023-01-17T06:39:15.114Z,3.42
2023-01-17T06:42:18.999Z,3.70
2023-01-17T06:45:21.565Z,4.05
2023-01-17T06:48:25.050Z,3.37
2023-01-17T06:51:27.984Z,3.97
2023-01-17T06:54:30.831Z,3.50
2023-01-17T06:57:33.657Z,4.25
2023-01-17T07:00:39.426Z,4.62
2023-01-17T07:03:43.119Z,4.22
2023-01-17T07:06:45.940Z,4.15
2023-01-17T07:09:48.655Z,3.78
2023-01-17T07:12:51.636Z,3.80
2023-01-17T07:15:54.654Z,4.10
2023-01-17T07:18:58.142Z,4.50
2023-01-17T07:22:00.800Z,4.70
2023-01-17T07:25:04.804Z,4.37
2023-01-17T07:28:07.594Z,4.12
2023-01-17T07:31:10.625Z,4.12
2023-01-17T07:34:13.553Z,4.40
2023-01-17T07:37:16.379Z,4.20
2023-01-17T07:40:20.704Z,3.55
2023-01-17T07:43:23.592Z,3.03
2023-01-17T07:46:26.187Z,2.60
2023-01-17T07:49:29.235Z,2.75
2023-01-17T07:52:32.060Z,2.95
2023-01-17T07:55:35.396Z,2.55
2023-01-17T07:58:38.025Z,2.37
2023-01-17T08:01:41.189Z,1.90
2023-01-17T08:04:44.676Z,2.12
2023-01-17T08:07:47.316Z,1.98
2023-01-17T08:10:51.551Z,2.05
2023-01-17T08:13:57.559Z,2.03
2023-01-17T08:17:06.101Z,1.65
2023-01-17T08:20:09.577Z,1.77
2023-01-17T08:23:12.621Z,1.35
2023-01-17T08:26:21.435Z,1.40
2023-01-17T08:29:24.654Z,1.23
2023-01-17T08:32:27.426Z,1.65
2023-01-17T08:35:31.139Z,1.02
2023-01-17T08:38:33.788Z,1.12
2023-01-17T08:41:36.840Z,1.20
2023-01-17T08:44:39.823Z,1.00
2023-01-17T08:47:42.660Z,1.10
2023-01-17T08:50:45.978Z,1.10
2023-01-17T08:53:48.923Z,1.30
2023-01-17T08:56:52.996Z,1.20
2023-01-17T08:59:55.853Z,1.20
2023-01-17T09:02:59.471Z,1.40
2023-01-17T09:06:05.527Z,1.37
2023-01-17T09:09:11.035Z,1.33
2023-01-17T09:12:14.026Z,1.20
2023-01-17T09:15:20.175Z,1.67
2023-01-17T09:18:24.545Z,1.15
2023-01-17T09:21:27.763Z,1.40
2023-01-17T09:24:32.740Z,1.10
2023-01-17T09:27:37.811Z,2.30
2023-01-17T09:30:41.636Z,1.58
2023-01-17T09:33:44.679Z,1.40
2023-01-17T09:36:47.630Z,1.30
2023-01-17T09:39:50.266Z,1.23
2023-01-17T09:43:03.851Z,1.52
2023-01-17T09:46:10.952Z,1.50
2023-01-17T09:49:39.756Z,0.90
2023-01-17T09:52:42.840Z,1.00
2023-01-17T09:56:14.542Z,1.10
2023-01-17T09:59:18.997Z,1.50
2023-01-17T10:02:54.542Z,1.55
2023-01-17T10:06:11.689Z,1.30
2023-01-17T10:09:23.280Z,1.50
2023-01-17T10:12:28.907Z,1.48
2023-01-17T10:15:48.589Z,1.65
2023-01-17T10:19:04.197Z,1.73
2023-01-17T10:22:34.429Z,1.60
2023-01-17T10:25:43.930Z,1.60
2023-01-17T10:28:52.010Z,1.50
2023-01-17T10:32:02.413Z,1.52
2023-01-17T10:35:17.927Z,1.80
2023-01-17T10:38:25.565Z,1.42
2023-01-17T10:41:37.955Z,1.60
2023-01-17T10:44:53.279Z,1.75
2023-01-17T10:48:23.090Z,1.90
2023-01-17T10:51:44.441Z,1.35
2023-01-17T10:55:05.802Z,1.50
2023-01-17T10:58:12.651Z,1.98
2023-01-17T11:01:20.897Z,1.60
2023-01-17T11:04:35.087Z,1.92
2023-01-17T11:07:39.989Z,1.55
2023-01-17T11:10:54.079Z,1.92
2023-01-17T11:14:00.851Z,2.12
2023-01-17T11:17:06.972Z,1.90
2023-01-17T11:20:28.085Z,2.08
2023-01-17T11:23:33.368Z,1.80
2023-01-17T11:26:37.538Z,1.60
2023-01-17T11:29:40.634Z,1.60
2023-01-17T11:32:56.252Z,1.50
2023-01-17T11:35:59.324Z,1.30
2023-01-17T11:39:05.278Z,1.55
2023-01-17T11:42:35.282Z,1.20
2023-01-17T11:48:41.800Z,1.05
2023-01-17T11:51:44.491Z,1.55
2023-01-17T11:54:49.295Z,1.40
2023-01-17T11:57:51.927Z,1.10
2023-01-17T12:01:23.959Z,1.00
2023-01-17T12:04:49.065Z,0.80
2023-01-17T12:07:54.712Z,0.80
2023-01-17T12:11:17.075Z,1.17
2023-01-17T12:14:35.947Z,1.20
2023-01-17T12:17:41.645Z,1.45
2023-01-17T12:21:09.533Z,1.30
2023-01-17T12:24:47.487Z,1.42
2023-01-17T12:28:05.573Z,1.90
2023-01-17T12:31:36.821Z,1.77
2023-01-17T12:34:52.553Z,1.50
2023-01-17T12:38:05.128Z,1.30
2023-01-17T12:41:14.146Z,1.40
2023-01-17T12:44:19.405Z,1.50
2023-01-17T12:47:22.772Z,1.70
2023-01-17T12:50:55.722Z,1.52
2023-01-17T12:54:20.011Z,1.70
2023-01-17T12:57:26.627Z,1.20
2023-01-17T13:00:32.162Z,1.45
2023-01-17T13:04:00.187Z,1.40
2023-01-17T13:07:21.701Z,1.50
2023-01-17T13:10:38.031Z,1.80
2023-01-17T13:13:41.352Z,1.83
2023-01-17T13:17:22.644Z,1.90
2023-01-17T13:21:06.070Z,1.80
2023-01-17T13:24:31.531Z,1.60
2023-01-17T13:27:42.963Z,1.73
2023-01-17T13:30:55.224Z,2.03
2023-01-17T13:34:06.754Z,2.28
2023-01-17T13:37:47.178Z,1.95
2023-01-17T13:40:55.055Z,2.00
2023-01-17T13:44:19.362Z,2.33
2023-01-17T13:47:23.794Z,2.58
2023-01-17T13:50:38.963Z,2.30
2023-01-17T13:53:41.511Z,2.53
2023-01-17T13:56:44.417Z,2.50
2023-01-17T13:59:47.541Z,2.60
2023-01-17T14:02:55.538Z,2.60
2023-01-17T14:05:58.548Z,2.15
2023-01-17T14:09:37.398Z,2.30
2023-01-17T14:12:40.375Z,2.50
2023-01-17T14:15:50.357Z,2.42
2023-01-17T14:18:54.592Z,2.80
2023-01-17T14:22:22.726Z,2.60
2023-01-17T14:25:30.136Z,2.50
2023-01-17T14:28:32.712Z,2.50
2023-01-17T14:31:35.969Z,2.97
2023-01-17T14:34:38.700Z,2.95
2023-01-17T14:37:51.248Z,2.75
2023-01-17T14:41:27.041Z,3.83
2023-01-17T14:44:29.996Z,3.92
2023-01-17T14:47:38.107Z,4.60
2023-01-17T14:50:44.104Z,3.22
2023-01-17T14:53:55.702Z,3.83
2023-01-17T14:57:28.334Z,3.72
2023-01-17T15:00:34.984Z,3.92
2023-01-17T15:03:49.312Z,4.15
2023-01-17T15:06:52.274Z,3.28
2023-01-17T15:09:55.208Z,3.65
2023-01-17T15:13:05.855Z,3.45
2023-01-17T15:16:24.128Z,3.33
2023-01-17T15:19:26.945Z,3.85
2023-01-17T15:22:30.809Z,3.60
2023-01-17T15:25:34.076Z,3.10
2023-01-17T15:28:37.135Z,4.32
2023-01-17T15:31:48.683Z,3.90
2023-01-17T15:34:52.636Z,3.87
2023-01-17T15:37:58.222Z,3.58
2023-01-17T15:41:15.258Z,3.67
2023-01-17T15:44:46.995Z,3.78
2023-01-17T15:47:51.287Z,3.40
2023-01-17T15:51:00.000Z,4.30
2023-01-17T15:54:33.242Z,3.57
2023-01-17T15:57:37.263Z,3.50
2023-01-17T16:00:41.961Z,3.42
2023-01-17T16:03:54.688Z,3.33
2023-01-17T16:07:20.342Z,3.42
2023-01-17T16:10:27.750Z,3.00
2023-01-17T16:13:32.536Z,3.30
2023-01-17T16:16:35.372Z,3.40
2023-01-17T16:19:38.369Z,3.42
2023-01-17T16:22:44.919Z,3.30
2023-01-17T16:25:48.093Z,3.55
2023-01-17T16:28:51.889Z,3.28
2023-01-17T16:31:55.100Z,3.30
2023-01-17T16:34:57.973Z,3.47
2023-01-17T16:38:03.451Z,3.20
2023-01-17T16:41:06.479Z,3.05
2023-01-17T16:44:09.901Z,3.30
